Time;durP1;ratioP1;P1;durP2;ratioP2;P2;SDS_P1;SDS_P2;PMS_P1;PMS_P2;Temp;Humidity;BMP_temperature;BMP_pressure;BME280_temperature;BME280_humidity;BME280_pressure;Samples;Min_cycle;Max_cycle;Signal;HPM_P1;HPM_P2
2022/06/16 00:01:28;;;;;;;6.57;6.00;;;20.50;1.00;;;;;;5068160;28;20442;-59
2022/06/16 00:03:54;;;;;;;6.50;5.90;;;20.50;1.00;;;;;;5049566;28;20219;-59
2022/06/16 00:06:27;;;;;;;6.60;6.03;;;20.50;1.00;;;;;;5059015;28;20437;-59
2022/06/16 00:08:53;;;;;;;6.93;5.73;;;20.40;1.00;;;;;;5070088;28;20457;-59
2022/06/16 00:11:19;;;;;;;6.73;6.13;;;20.30;1.00;;;;;;5070731;28;20968;-59
2022/06/16 00:13:46;;;;;;;11.30;8.60;;;20.30;1.00;;;;;;5051877;28;20259;-59
2022/06/16 00:16:30;;;;;;;8.43;7.50;;;20.40;1.00;;;;;;5064921;28;20441;-59
2022/06/16 00:18:56;;;;;;;9.27;8.47;;;20.40;1.00;;;;;;5058738;28;20924;-59
2022/06/16 00:21:31;;;;;;;26.10;21.90;;;20.30;1.00;;;;;;5050633;28;20438;-58
2022/06/16 00:23:57;;;;;;;21.90;18.30;;;20.30;1.00;;;;;;5050560;28;20192;-60
2022/06/16 00:26:24;;;;;;;14.90;12.67;;;20.30;1.00;;;;;;5050864;28;20439;-58
2022/06/16 00:28:51;;;;;;;16.03;12.63;;;20.20;1.00;;;;;;5050122;28;20206;-59
2022/06/16 00:31:22;;;;;;;10.60;9.40;;;20.20;1.00;;;;;;5050260;28;20522;-59
2022/06/16 00:33:49;;;;;;;9.93;8.10;;;20.20;1.00;;;;;;5048724;28;20450;-56
2022/06/16 00:36:24;;;;;;;8.50;6.67;;;20.20;1.00;;;;;;5049869;28;20454;-59
2022/06/16 00:38:50;;;;;;;6.80;6.20;;;20.10;1.00;;;;;;5050311;28;20430;-59
2022/06/16 00:41:21;;;;;;;7.87;6.33;;;20.00;1.00;;;;;;5058964;28;20507;-58
2022/06/16 00:43:47;;;;;;;6.30;5.77;;;20.00;1.00;;;;;;5070316;28;20660;-58
2022/06/16 00:46:22;;;;;;;7.13;6.10;;;20.00;1.00;;;;;;5069985;28;20586;-59
2022/06/16 00:48:53;;;;;;;7.30;6.67;;;19.90;1.00;;;;;;5054622;28;20293;-60
2022/06/16 00:51:33;;;;;;;7.80;6.80;;;19.90;1.00;;;;;;5049840;28;20466;-59
2022/06/16 00:54:07;;;;;;;7.33;6.63;;;19.80;1.00;;;;;;5049922;28;20944;-58
2022/06/16 00:56:32;;;;;;;7.20;6.60;;;19.80;1.00;;;;;;5050248;28;20800;-59
2022/06/16 00:59:02;;;;;;;7.10;6.40;;;19.80;1.00;;;;;;5052284;28;20451;-59
2022/06/16 01:01:29;;;;;;;6.83;6.20;;;19.80;1.00;;;;;;5050164;28;20302;-63
2022/06/16 01:06:40;;;;;;;6.63;6.03;;;19.80;1.00;;;;;;5050651;28;20815;-59
2022/06/16 01:09:11;;;;;;;6.53;5.93;;;19.70;1.00;;;;;;5049486;28;20466;-58
2022/06/16 01:14:57;;;;;;;6.40;5.80;;;19.70;1.00;;;;;;5049650;28;20923;-59
2022/06/16 01:17:44;;;;;;;6.97;6.27;;;19.70;1.00;;;;;;5049421;28;20496;-59
2022/06/16 01:20:27;;;;;;;7.10;6.40;;;19.50;1.00;;;;;;5049854;28;20437;-59
2022/06/16 01:22:58;;;;;;;7.40;6.70;;;19.50;1.00;;;;;;5049657;28;20527;-59
2022/06/16 01:26:00;;;;;;;6.93;6.30;;;19.50;1.00;;;;;;5049501;28;20427;-58
2022/06/16 01:28:55;;;;;;;7.77;6.93;;;19.50;1.00;;;;;;5049296;28;20919;-58
2022/06/16 01:31:36;;;;;;;7.20;6.53;;;19.50;1.00;;;;;;5049557;28;20503;-59
2022/06/16 01:34:11;;;;;;;7.80;6.57;;;19.50;1.00;;;;;;5065857;28;20465;-59
2022/06/16 01:36:43;;;;;;;7.37;6.60;;;19.40;1.00;;;;;;5069634;28;20441;-58
2022/06/16 01:39:18;;;;;;;7.93;7.23;;;19.40;1.00;;;;;;5069859;28;20461;-58
2022/06/16 01:41:55;;;;;;;7.63;6.83;;;19.50;1.00;;;;;;5069363;28;20516;-59
2022/06/16 01:44:42;;;;;;;6.90;6.30;;;19.30;1.00;;;;;;5065194;28;20441;-59
2022/06/16 01:47:13;;;;;;;7.30;6.80;;;19.20;1.00;;;;;;5073395;28;20436;-58
2022/06/16 01:49:50;;;;;;;7.33;6.50;;;19.20;1.00;;;;;;5050960;28;20959;-58
2022/06/16 01:52:37;;;;;;;7.17;6.50;;;19.10;1.00;;;;;;5053085;28;20442;-60
2022/06/16 01:55:12;;;;;;;7.50;7.00;;;19.00;1.00;;;;;;5053261;28;20431;-59
2022/06/16 01:57:49;;;;;;;7.70;6.87;;;19.10;1.00;;;;;;5050360;28;20483;-59
2022/06/16 02:00:22;;;;;;;8.03;7.33;;;19.00;1.00;;;;;;5053169;28;20434;-59
2022/06/16 02:03:05;;;;;;;7.70;7.10;;;18.90;1.00;;;;;;5050469;28;20789;-59
2022/06/16 02:06:08;;;;;;;7.43;6.83;;;18.90;1.00;;;;;;5053028;28;20777;-59
2022/06/16 02:08:41;;;;;;;7.73;6.90;;;18.90;1.00;;;;;;5046686;28;20560;-57
2022/06/16 02:11:32;;;;;;;7.70;7.03;;;18.90;1.00;;;;;;5052294;28;20442;-58
2022/06/16 02:14:07;;;;;;;7.93;7.30;;;18.80;1.00;;;;;;5051494;28;20492;-58
2022/06/16 02:16:35;;;;;;;7.60;7.07;;;18.80;1.00;;;;;;5052538;28;20923;-59
2022/06/16 02:19:05;;;;;;;8.00;7.30;;;18.80;1.00;;;;;;5052411;28;20466;-59
2022/06/16 02:21:37;;;;;;;8.40;7.80;;;18.80;1.00;;;;;;5060357;28;20461;-58
2022/06/16 02:24:05;;;;;;;9.60;7.87;;;18.80;1.00;;;;;;5072609;28;20461;-59
2022/06/16 02:26:31;;;;;;;9.03;8.33;;;18.80;1.00;;;;;;5056102;28;20601;-59
2022/06/16 02:29:01;;;;;;;7.30;6.70;;;18.80;1.00;;;;;;5052246;28;20561;-60
2022/06/16 02:31:36;;;;;;;8.47;7.70;;;18.80;1.00;;;;;;5052635;28;20446;-58
2022/06/16 02:34:28;;;;;;;8.00;7.30;;;18.80;1.00;;;;;;5052153;28;20430;-58
2022/06/16 02:37:27;;;;;;;8.40;7.60;;;18.80;1.00;;;;;;5052443;28;20434;-59
2022/06/16 02:39:55;;;;;;;9.33;7.50;;;18.70;1.00;;;;;;5059489;28;20563;-60
2022/06/16 02:42:48;;;;;;;7.43;6.90;;;18.70;1.00;;;;;;5072428;28;20764;-59
2022/06/16 02:45:25;;;;;;;7.97;7.37;;;18.70;1.00;;;;;;5051556;28;20451;-59
2022/06/16 02:48:04;;;;;;;7.90;7.20;;;18.80;1.00;;;;;;5051745;28;20522;-58
2022/06/16 02:50:50;;;;;;;8.80;7.83;;;18.80;1.00;;;;;;5068849;28;20457;-58
2022/06/16 02:56:27;;;;;;;8.90;7.50;;;18.70;1.00;;;;;;5071946;28;20528;-60
2022/06/16 02:58:56;;;;;;;7.90;7.30;;;18.80;1.00;;;;;;5071201;28;20616;-59
2022/06/16 03:01:23;;;;;;;7.23;6.63;;;18.80;1.00;;;;;;5072041;28;20442;-59
2022/06/16 03:04:11;;;;;;;8.07;7.37;;;18.80;1.00;;;;;;5071800;28;20543;-60
2022/06/16 03:06:37;;;;;;;7.83;7.13;;;18.80;1.00;;;;;;5071924;28;20462;-59
2022/06/16 03:09:04;;;;;;;8.23;7.60;;;18.80;1.00;;;;;;5071574;28;21040;-60
2022/06/16 03:11:34;;;;;;;8.40;7.57;;;18.90;1.00;;;;;;5071946;28;20444;-59
2022/06/16 03:14:00;;;;;;;8.00;7.37;;;18.80;1.00;;;;;;5057453;28;20907;-59
2022/06/16 03:16:26;;;;;;;8.03;7.17;;;18.80;1.00;;;;;;5051859;28;20487;-59
2022/06/16 03:18:52;;;;;;;8.20;7.60;;;18.90;1.00;;;;;;5051262;28;20534;-59
2022/06/16 03:21:18;;;;;;;8.10;7.30;;;18.90;1.00;;;;;;5063701;28;21080;-58
2022/06/16 03:23:44;;;;;;;8.20;7.50;;;19.00;1.00;;;;;;5071479;28;20268;-58
2022/06/16 03:26:13;;;;;;;7.90;7.20;;;19.00;1.00;;;;;;5064921;28;20443;-58
2022/06/16 03:28:39;;;;;;;7.53;6.93;;;19.10;1.00;;;;;;5051651;28;20287;-60
2022/06/16 03:31:04;;;;;;;7.70;7.00;;;19.00;1.00;;;;;;5051240;28;20537;-59
2022/06/16 03:33:30;;;;;;;8.27;7.47;;;;;;;;;;5055770;28;20438;-59
2022/06/16 03:35:56;;;;;;;8.73;7.07;;;19.20;1.00;;;;;;5071182;28;20179;-58
2022/06/16 03:40:51;;;;;;;7.43;6.73;;;19.40;1.00;;;;;;5055429;28;20458;-59
2022/06/16 03:43:17;;;;;;;16.33;7.70;;;19.40;1.00;;;;;;5050459;28;20449;-58
2022/06/16 03:45:42;;;;;;;7.37;6.73;;;19.40;1.00;;;;;;5051250;28;20188;-58
2022/06/16 03:48:09;;;;;;;8.00;7.40;;;19.30;1.00;;;;;;5050430;28;20549;-59
2022/06/16 03:50:35;;;;;;;6.80;6.20;;;19.40;1.00;;;;;;5050621;28;20573;-59
2022/06/16 03:53:00;;;;;;;8.20;7.47;;;19.50;1.00;;;;;;5050705;28;20442;-59
2022/06/16 03:55:26;;;;;;;8.10;7.50;;;19.50;1.00;;;;;;5051012;28;20529;-59
2022/06/16 03:57:52;;;;;;;7.30;6.63;;;19.60;1.00;;;;;;5050810;28;20184;-58
2022/06/16 04:00:20;;;;;;;8.83;8.10;;;19.60;1.00;;;;;;5048606;28;20199;-60
2022/06/16 04:03:59;;;;;;;7.93;7.20;;;19.60;1.00;;;;;;5050566;28;20475;-59
2022/06/16 04:05:35;;;;;;;7.63;6.60;;;19.60;1.00;;;;;;5051027;28;20433;-59
2022/06/16 04:08:01;;;;;;;7.07;6.57;;;19.40;1.00;;;;;;5050620;28;20565;-59
2022/06/16 04:10:27;;;;;;;6.70;6.03;;;19.30;1.00;;;;;;5050611;28;20517;-58
2022/06/16 04:12:52;;;;;;;7.97;7.10;;;19.30;1.00;;;;;;5049298;28;20211;-59
2022/06/16 04:15:18;;;;;;;7.47;6.87;;;19.30;1.00;;;;;;5050816;28;20602;-58
2022/06/16 04:17:43;;;;;;;7.80;7.10;;;19.30;1.00;;;;;;5056057;28;20180;-57
2022/06/16 04:20:13;;;;;;;7.47;6.77;;;19.30;1.00;;;;;;5058585;28;20191;-58
2022/06/16 04:22:38;;;;;;;10.77;6.97;;;19.30;1.00;;;;;;5050541;28;20165;-58
2022/06/16 04:25:07;;;;;;;7.03;6.53;;;19.20;1.00;;;;;;5050574;28;20517;-58
2022/06/16 04:27:33;;;;;;;7.00;6.50;;;19.20;1.00;;;;;;5050259;28;20426;-57
2022/06/16 04:29:58;;;;;;;7.30;6.60;;;19.40;1.00;;;;;;5050246;28;20443;-59
2022/06/16 04:32:24;;;;;;;8.83;6.87;;;19.50;1.00;;;;;;5050732;28;20434;-59
2022/06/16 04:34:50;;;;;;;7.27;6.70;;;19.60;1.00;;;;;;5065582;28;20211;-60
2022/06/16 04:37:16;;;;;;;8.03;7.33;;;19.70;1.00;;;;;;5070206;28;20175;-59
2022/06/16 04:39:41;;;;;;;7.90;6.93;;;19.80;1.00;;;;;;5070176;28;20667;-59
2022/06/16 04:42:07;;;;;;;7.43;6.67;;;20.10;1.00;;;;;;5068471;28;20187;-59
2022/06/16 04:44:34;;;;;;;7.53;6.73;;;20.10;1.00;;;;;;5050172;28;20187;-59
2022/06/16 04:47:02;;;;;;;7.27;6.57;;;20.10;1.00;;;;;;5050232;28;20230;-58
2022/06/16 04:49:28;;;;;;;6.97;6.37;;;20.20;1.00;;;;;;5049535;28;20536;-59
2022/06/16 04:51:53;;;;;;;6.90;6.33;;;20.20;1.00;;;;;;5050326;28;20472;-59
2022/06/16 04:54:19;;;;;;;7.93;7.40;;;;;;;;;;5049683;28;20434;-59
2022/06/16 04:56:45;;;;;;;7.20;6.70;;;20.30;1.00;;;;;;5049956;28;20199;-59
2022/06/16 04:59:13;;;;;;;8.73;6.90;;;20.20;1.00;;;;;;5049715;28;20525;-58
2022/06/16 05:01:39;;;;;;;7.63;6.60;;;20.20;1.00;;;;;;5050218;28;20179;-59
2022/06/16 05:04:05;;;;;;;8.40;7.60;;;20.10;1.00;;;;;;5049504;28;20492;-59
2022/06/16 05:07:28;;;;;;;7.67;6.93;;;20.20;1.00;;;;;;5050157;28;20442;-59
2022/06/16 05:09:53;;;;;;;7.33;6.63;;;20.30;1.00;;;;;;5027375;28;20220;-60
2022/06/16 05:12:19;;;;;;;7.40;6.67;;;20.60;1.00;;;;;;5026973;28;20435;-58
2022/06/16 05:14:44;;;;;;;9.40;7.27;;;20.90;1.00;;;;;;5037542;28;20195;-59
2022/06/16 05:17:10;;;;;;;8.30;6.20;;;21.10;1.00;;;;;;5049747;28;20188;-60
2022/06/16 05:19:35;;;;;;;7.37;6.73;;;21.40;1.00;;;;;;5049777;28;20374;-59
2022/06/16 05:22:05;;;;;;;8.10;7.33;;;21.60;1.00;;;;;;5054025;28;20201;-59
2022/06/16 05:24:31;;;;;;;7.63;6.83;;;21.70;1.00;;;;;;5053901;28;20195;-59
2022/06/16 05:26:57;;;;;;;7.40;6.80;;;21.80;1.00;;;;;;5053722;28;20442;-59
2022/06/16 05:29:23;;;;;;;6.80;6.20;;;21.90;1.00;;;;;;5052503;28;20474;-60
2022/06/16 05:31:49;;;;;;;8.87;6.70;;;;;;;;;;5051985;28;20687;-58
2022/06/16 05:34:15;;;;;;;8.00;6.53;;;21.90;1.00;;;;;;5053448;28;20199;-59
2022/06/16 05:36:44;;;;;;;6.87;6.27;;;21.90;1.00;;;;;;5052127;28;20530;-58
2022/06/16 05:39:09;;;;;;;10.03;6.97;;;21.80;1.00;;;;;;5052253;28;20500;-59
2022/06/16 05:41:35;;;;;;;7.43;6.83;;;21.90;1.00;;;;;;5053430;28;20919;-59
2022/06/16 05:44:01;;;;;;;6.70;6.03;;;22.00;1.00;;;;;;5053134;28;20542;-58
2022/06/16 05:46:26;;;;;;;7.00;6.50;;;22.00;1.00;;;;;;5053398;28;20212;-59
2022/06/16 05:48:52;;;;;;;6.67;6.07;;;22.10;1.00;;;;;;5052714;28;20218;-59
2022/06/16 05:51:18;;;;;;;9.27;6.10;;;22.20;1.00;;;;;;5053199;28;20211;-58
2022/06/16 05:53:45;;;;;;;6.67;5.97;;;22.50;1.00;;;;;;5053073;28;20184;-59
2022/06/16 05:56:20;;;;;;;8.50;6.10;;;22.60;1.00;;;;;;5053303;28;20442;-60
2022/06/16 05:58:46;;;;;;;7.00;5.80;;;22.70;1.00;;;;;;5052814;28;21012;-59
2022/06/16 06:01:18;;;;;;;6.17;5.60;;;22.80;1.00;;;;;;5053221;28;20442;-59
2022/06/16 06:03:44;;;;;;;7.00;6.47;;;22.90;1.00;;;;;;5053079;28;20438;-60
2022/06/16 06:06:18;;;;;;;6.50;5.90;;;23.00;1.00;;;;;;5053313;28;20951;-59
2022/06/16 06:17:15;;;;;;;5.90;5.30;;;23.80;1.00;;;;;;5060985;28;20970;-58
2022/06/16 06:19:41;;;;;;;12.60;5.37;;;23.80;1.00;;;;;;5068104;28;20453;-57
2022/06/16 06:22:13;;;;;;;6.67;5.70;;;23.70;1.00;;;;;;5072731;28;20441;-60
2022/06/16 06:24:47;;;;;;;6.23;5.63;;;23.80;1.00;;;;;;5071275;28;20188;-59
2022/06/16 06:27:34;;;;;;;7.27;5.53;;;23.70;1.00;;;;;;5052462;28;20469;-59
2022/06/16 06:30:01;;;;;;;7.33;6.00;;;23.60;1.00;;;;;;5052299;28;20443;-58
2022/06/16 06:32:28;;;;;;;6.10;5.50;;;23.50;1.00;;;;;;5063758;28;20442;-58
2022/06/16 06:34:54;;;;;;;12.30;5.73;;;23.40;1.00;;;;;;5072382;28;20426;-58
2022/06/16 06:37:24;;;;;;;8.77;5.67;;;23.30;1.00;;;;;;5072374;28;20438;-58
2022/06/16 06:39:50;;;;;;;6.80;6.07;;;23.30;1.00;;;;;;5072498;28;20211;-59
2022/06/16 06:42:16;;;;;;;6.53;5.30;;;23.30;1.00;;;;;;5072308;28;20764;-59
2022/06/16 06:44:41;;;;;;;7.43;6.13;;;22.90;1.00;;;;;;5072621;28;20445;-59
2022/06/16 06:47:09;;;;;;;9.37;6.47;;;22.70;1.00;;;;;;5071988;28;20266;-59
2022/06/16 06:49:35;;;;;;;8.07;6.30;;;22.60;1.00;;;;;;5050216;28;20230;-59
2022/06/16 06:52:00;;;;;;;13.17;6.40;;;22.30;1.00;;;;;;5052024;28;20892;-59
2022/06/16 06:54:26;;;;;;;10.30;7.00;;;;;;;;;;5065602;28;20191;-59
2022/06/16 06:56:52;;;;;;;6.80;6.20;;;22.30;1.00;;;;;;5072188;28;20644;-58
2022/06/16 06:59:19;;;;;;;6.43;5.83;;;22.30;1.00;;;;;;5071897;28;20449;-59
2022/06/16 07:01:49;;;;;;;7.47;6.70;;;22.40;1.00;;;;;;5072439;28;20536;-59
2022/06/16 07:04:16;;;;;;;7.97;6.07;;;22.80;1.00;;;;;;5071843;28;20452;-59
2022/06/16 07:06:42;;;;;;;8.60;6.43;;;23.00;1.00;;;;;;5072052;28;20957;-58
2022/06/16 07:09:10;;;;;;;8.80;6.70;;;23.40;1.00;;;;;;5054279;28;20458;-60
2022/06/16 07:11:37;;;;;;;7.03;6.33;;;23.90;1.00;;;;;;5051837;28;20438;-59
2022/06/16 07:14:02;;;;;;;6.73;6.07;;;23.70;1.00;;;;;;5051279;28;21361;-59
2022/06/16 07:16:28;;;;;;;8.60;6.37;;;23.90;1.00;;;;;;5051783;28;20485;-59
2022/06/16 07:18:53;;;;;;;21.60;8.60;;;23.90;1.00;;;;;;5048709;28;20184;-58
2022/06/16 07:21:20;;;;;;;7.10;6.50;;;23.90;1.00;;;;;;5051555;28;20184;-59
2022/06/16 07:23:46;;;;;;;8.73;6.33;;;24.10;1.00;;;;;;5051327;28;20245;-58
2022/06/16 07:26:12;;;;;;;21.10;7.63;;;24.20;1.00;;;;;;5051311;28;20538;-59
2022/06/16 07:28:37;;;;;;;10.00;7.20;;;23.90;1.00;;;;;;5051180;28;20207;-58
2022/06/16 07:31:03;;;;;;;13.60;8.93;;;23.40;1.00;;;;;;5049863;28;20298;-59
2022/06/16 07:33:29;;;;;;;9.23;7.90;;;23.20;1.00;;;;;;5051248;28;20180;-60
2022/06/16 07:35:55;;;;;;;11.00;9.53;;;23.00;1.00;;;;;;5051309;28;20180;-60
2022/06/16 07:38:24;;;;;;;12.67;8.70;;;22.90;1.00;;;;;;5051339;28;20192;-59
2022/06/16 07:40:49;;;;;;;7.90;7.10;;;23.10;1.00;;;;;;5050999;28;20439;-58
2022/06/16 07:43:15;;;;;;;8.20;7.50;;;23.40;1.00;;;;;;5050266;28;20484;-59
2022/06/16 07:45:41;;;;;;;11.80;9.17;;;23.50;1.00;;;;;;5051051;28;20191;-58
2022/06/16 07:48:07;;;;;;;14.50;10.63;;;23.60;1.00;;;;;;5050951;28;20561;-59
2022/06/16 07:50:36;;;;;;;10.33;9.23;;;23.70;1.00;;;;;;5050841;28;20682;-58
2022/06/16 07:53:04;;;;;;;14.37;10.00;;;23.80;1.00;;;;;;5051158;28;20434;-59
2022/06/16 07:55:30;;;;;;;11.10;6.70;;;24.10;1.00;;;;;;5051093;28;20462;-59
2022/06/16 07:57:56;;;;;;;7.60;6.90;;;;;;;;;;5050902;28;20497;-59
2022/06/16 08:00:25;;;;;;;8.50;7.10;;;24.50;1.00;;;;;;5051127;28;20242;-58
2022/06/16 08:02:51;;;;;;;8.00;7.30;;;24.70;1.00;;;;;;5050984;28;20492;-59
2022/06/16 08:05:17;;;;;;;11.23;7.47;;;24.90;1.00;;;;;;5055288;28;20435;-60
2022/06/16 08:07:43;;;;;;;8.67;7.87;;;24.70;1.00;;;;;;5050691;28;20242;-59
2022/06/16 08:10:13;;;;;;;13.83;7.97;;;24.80;1.00;;;;;;5050894;28;20180;-59
2022/06/16 08:12:40;;;;;;;11.13;7.90;;;24.20;1.00;;;;;;5050422;28;20431;-58
2022/06/16 08:15:06;;;;;;;8.03;7.30;;;24.70;1.00;;;;;;5049352;28;20500;-59
2022/06/16 08:17:34;;;;;;;9.00;7.47;;;24.90;1.00;;;;;;5050722;28;20485;-58
2022/06/16 08:20:01;;;;;;;11.03;8.00;;;25.20;1.00;;;;;;5050156;28;20195;-59
2022/06/16 08:22:27;;;;;;;8.13;7.37;;;25.30;1.00;;;;;;5050712;28;20441;-59
2022/06/16 08:24:53;;;;;;;8.70;7.80;;;25.60;1.00;;;;;;5050256;28;20920;-58
2022/06/16 08:27:21;;;;;;;9.43;8.20;;;25.70;1.00;;;;;;5050194;28;20496;-59
2022/06/16 08:29:48;;;;;;;8.47;7.70;;;25.50;1.00;;;;;;5050132;28;20238;-59
2022/06/16 08:32:17;;;;;;;12.03;8.57;;;25.10;1.00;;;;;;5050143;28;20943;-59
2022/06/16 08:34:42;;;;;;;11.63;8.27;;;25.10;1.00;;;;;;5050205;28;20438;-60
2022/06/16 08:37:08;;;;;;;10.40;9.33;;;25.50;1.00;;;;;;5050040;28;20561;-58
2022/06/16 08:39:34;;;;;;;8.93;8.10;;;25.60;1.00;;;;;;5049919;28;20188;-59
2022/06/16 08:42:10;;;;;;;10.93;7.60;;;25.60;1.00;;;;;;5049823;28;20671;-59
2022/06/16 08:45:05;;;;;;;9.13;8.10;;;25.60;1.00;;;;;;5049925;28;20274;-59
2022/06/16 08:47:34;;;;;;;8.47;7.67;;;25.20;1.00;;;;;;5063998;28;20416;-59
2022/06/16 08:50:07;;;;;;;9.23;6.60;;;25.20;1.00;;;;;;5053374;28;20536;-59
2022/06/16 08:52:45;;;;;;;8.90;7.43;;;25.30;1.00;;;;;;5064072;28;20449;-59
2022/06/16 08:55:51;;;;;;;10.70;7.40;;;25.10;1.00;;;;;;5069090;28;20541;-59
2022/06/16 08:58:39;;;;;;;7.47;6.80;;;25.30;1.00;;;;;;5069521;28;20445;-59
2022/06/16 09:01:30;;;;;;;7.50;6.50;;;25.60;1.00;;;;;;5070054;28;20528;-59
2022/06/16 09:04:22;;;;;;;7.50;6.90;;;25.80;1.00;;;;;;5062774;28;20433;-60
2022/06/16 09:06:56;;;;;;;8.10;7.00;;;25.70;1.00;;;;;;5054476;28;20439;-59
2022/06/16 09:12:44;;;;;;;6.17;5.70;;;26.30;1.00;;;;;;5048881;28;20473;-57
2022/06/16 09:15:14;;;;;;;7.87;6.30;;;26.70;1.00;;;;;;5038143;28;20430;-58
2022/06/16 09:18:10;;;;;;;8.70;7.40;;;26.60;1.00;;;;;;5049448;28;20441;-59
2022/06/16 09:21:32;;;;;;;6.83;6.17;;;26.10;1.00;;;;;;5048207;28;20442;-59
2022/06/16 09:24:19;;;;;;;8.50;7.20;;;25.50;1.00;;;;;;5048482;28;20442;-59
2022/06/16 09:30:23;;;;;;;7.67;6.33;;;25.30;1.00;;;;;;5043651;28;20541;-59
2022/06/16 09:32:57;;;;;;;7.10;6.40;;;25.30;1.00;;;;;;5048047;28;20484;-60
2022/06/16 09:35:32;;;;;;;12.97;6.60;;;25.40;1.00;;;;;;5049286;28;21071;-59
2022/06/16 09:38:10;;;;;;;6.90;6.27;;;25.40;1.00;;;;;;5047426;28;20454;-59
2022/06/16 09:40:46;;;;;;;6.70;5.93;;;25.50;1.00;;;;;;5048880;28;20449;-58
2022/06/16 09:43:25;;;;;;;6.73;6.13;;;25.60;1.00;;;;;;5049650;28;20449;-59
2022/06/16 09:46:32;;;;;;;6.93;6.20;;;25.50;1.00;;;;;;5050213;28;20438;-59
2022/06/16 09:49:02;;;;;;;9.13;5.87;;;25.90;1.00;;;;;;5053877;28;20522;-59
2022/06/16 09:55:03;;;;;;;7.23;6.53;;;26.20;1.00;;;;;;5044584;28;20423;-58
2022/06/16 09:57:54;;;;;;;13.70;6.10;;;26.30;1.00;;;;;;5049541;28;20470;-59
2022/06/16 10:00:22;;;;;;;9.63;6.53;;;26.10;1.00;;;;;;5045704;28;20823;-59
2022/06/16 10:02:58;;;;;;;11.93;5.40;;;26.00;1.00;;;;;;5049032;28;20422;-58
2022/06/16 10:05:38;;;;;;;6.17;5.63;;;26.10;1.00;;;;;;5048350;28;20544;-57
2022/06/16 10:08:16;;;;;;;8.70;5.77;;;26.30;1.00;;;;;;5053261;28;20841;-59
2022/06/16 10:10:59;;;;;;;9.33;6.70;;;26.00;1.00;;;;;;5052994;28;20972;-58
2022/06/16 10:13:31;;;;;;;8.83;5.70;;;25.20;1.00;;;;;;5059338;28;20503;-59
2022/06/16 10:16:27;;;;;;;9.03;5.53;;;26.00;1.00;;;;;;5072442;28;20930;-59
2022/06/16 10:18:53;;;;;;;7.07;5.00;;;26.20;1.00;;;;;;5060686;28;20446;-59
2022/06/16 10:21:35;;;;;;;6.40;5.90;;;26.50;1.00;;;;;;5065162;28;20429;-59
2022/06/16 10:24:04;;;;;;;6.37;5.57;;;26.30;1.00;;;;;;5072532;28;20701;-59
2022/06/16 10:26:57;;;;;;;8.60;6.17;;;25.80;1.00;;;;;;5072678;28;20527;-60
2022/06/16 10:29:29;;;;;;;10.87;6.27;;;25.80;1.00;;;;;;5072467;28;20453;-59
2022/06/16 10:31:56;;;;;;;6.70;6.10;;;25.60;1.00;;;;;;5072701;28;21076;-59
2022/06/16 10:34:28;;;;;;;11.10;6.40;;;25.50;1.00;;;;;;5072687;28;20521;-60
2022/06/16 10:37:30;;;;;;;7.00;6.30;;;25.70;1.00;;;;;;5056318;28;20484;-59
2022/06/16 10:40:05;;;;;;;8.03;6.60;;;25.50;1.00;;;;;;5028965;28;20558;-60
2022/06/16 10:42:59;;;;;;;6.30;5.77;;;25.50;1.00;;;;;;5049404;28;20951;-58
2022/06/16 10:45:30;;;;;;;6.63;6.03;;;25.50;1.00;;;;;;5052195;28;20521;-59
2022/06/16 10:48:18;;;;;;;6.43;5.83;;;25.60;1.00;;;;;;5051822;28;20439;-58
2022/06/16 10:50:49;;;;;;;7.90;5.77;;;26.70;1.00;;;;;;5052403;28;20549;-60
2022/06/16 10:53:24;;;;;;;5.80;5.40;;;26.70;1.00;;;;;;5052174;28;20484;-58
2022/06/16 10:55:50;;;;;;;5.23;4.77;;;27.30;1.00;;;;;;5052276;28;20433;-59
2022/06/16 10:58:30;;;;;;;6.37;5.87;;;27.20;1.00;;;;;;5050342;28;20810;-59
2022/06/16 11:04:12;;;;;;;6.17;5.43;;;28.00;1.00;;;;;;5051005;28;20449;-60
2022/06/16 11:06:52;;;;;;;6.73;5.50;;;28.20;1.00;;;;;;5051690;28;20409;-59
2022/06/16 11:09:24;;;;;;;6.30;5.70;;;28.30;1.00;;;;;;5051788;28;20466;-60
2022/06/16 11:12:15;;;;;;;6.90;5.47;;;28.50;1.00;;;;;;5051703;28;20443;-59
2022/06/16 11:14:45;;;;;;;6.10;5.67;;;28.70;1.00;;;;;;5051855;28;20462;-59
2022/06/16 11:20:30;;;;;;;7.93;6.10;;;28.80;1.00;;;;;;5050600;28;20430;-59
2022/06/16 11:22:57;;;;;;;7.33;5.90;;;28.60;1.00;;;;;;5051532;28;20888;-59
2022/06/16 11:25:36;;;;;;;5.83;5.30;;;28.20;1.00;;;;;;5062232;28;20841;-60
2022/06/16 11:28:09;;;;;;;8.80;5.13;;;27.50;1.00;;;;;;5071587;28;20441;-60
2022/06/16 11:30:37;;;;;;;5.80;5.20;;;27.20;1.00;;;;;;5071396;28;20438;-59
2022/06/16 11:33:05;;;;;;;5.53;5.10;;;27.10;1.00;;;;;;5056922;28;20446;-59
2022/06/16 11:35:48;;;;;;;6.20;5.60;;;27.00;1.00;;;;;;5051107;28;20797;-59
2022/06/16 11:38:29;;;;;;;6.93;4.80;;;26.90;1.00;;;;;;5051462;28;20458;-59
2022/06/16 11:40:59;;;;;;;6.57;4.80;;;26.70;1.00;;;;;;5051111;28;20446;-59
2022/06/16 11:43:42;;;;;;;7.07;6.37;;;26.40;1.00;;;;;;5053338;28;20778;-58
2022/06/16 11:46:12;;;;;;;6.37;5.90;;;26.00;1.00;;;;;;5071218;28;20516;-59
2022/06/16 11:48:57;;;;;;;10.40;6.27;;;26.00;1.00;;;;;;5070807;28;20465;-60
2022/06/16 11:55:02;;;;;;;6.30;5.90;;;26.50;1.00;;;;;;5051850;28;20438;-59
2022/06/16 12:00:59;;;;;;;6.10;5.50;;;27.50;1.00;;;;;;5033944;28;20878;-59
2022/06/16 12:03:37;;;;;;;5.80;5.40;;;27.80;1.00;;;;;;5050285;28;21015;-59
2022/06/16 12:10:07;;;;;;;5.50;4.97;;;27.40;1.00;;;;;;5050583;28;21068;-58
2022/06/16 12:13:14;;;;;;;6.50;5.63;;;26.70;1.00;;;;;;5050805;28;20435;-59
2022/06/16 12:15:48;;;;;;;6.30;5.30;;;26.80;1.00;;;;;;5047152;28;21009;-59
2022/06/16 12:18:47;;;;;;;5.90;5.40;;;27.40;1.00;;;;;;5050578;28;20441;-59
2022/06/16 12:24:23;;;;;;;10.03;6.47;;;27.30;1.00;;;;;;5033624;28;20441;-59
2022/06/16 12:30:45;;;;;;;6.27;5.40;;;27.60;1.00;;;;;;5006919;28;20586;-59
2022/06/16 12:33:21;;;;;;;5.33;4.93;;;27.60;1.00;;;;;;5063314;28;20423;-60
2022/06/16 12:36:15;;;;;;;6.80;6.13;;;27.50;1.00;;;;;;5070329;28;20515;-60
2022/06/16 12:39:01;;;;;;;7.23;6.53;;;27.50;1.00;;;;;;5070006;28;20517;-58
2022/06/16 12:45:28;;;;;;;6.47;5.87;;;27.20;1.00;;;;;;4952488;28;20434;-60
2022/06/16 12:48:34;;;;;;;7.43;6.40;;;27.10;1.00;;;;;;5050050;28;20454;-59
2022/06/16 12:51:04;;;;;;;6.07;5.57;;;27.00;1.00;;;;;;5065092;28;20471;-59
2022/06/16 12:53:51;;;;;;;5.73;5.23;;;27.00;1.00;;;;;;5069900;28;20524;-60
2022/06/16 12:56:20;;;;;;;11.17;6.33;;;27.40;1.00;;;;;;5054037;28;20928;-59
2022/06/16 12:59:01;;;;;;;6.13;5.30;;;27.30;1.00;;;;;;5049861;28;21010;-60
2022/06/16 13:01:27;;;;;;;8.70;6.10;;;27.60;1.00;;;;;;5055130;28;20482;-58
2022/06/16 13:04:05;;;;;;;8.10;5.67;;;27.40;1.00;;;;;;5069782;28;20445;-59
2022/06/16 13:10:16;;;;;;;7.00;5.20;;;27.20;1.00;;;;;;5020624;28;20842;-59
2022/06/16 13:16:09;;;;;;;6.13;5.47;;;27.40;1.00;;;;;;4977187;28;20447;-60
2022/06/16 13:18:51;;;;;;;5.60;5.10;;;27.60;1.00;;;;;;5027512;28;20446;-59
2022/06/16 13:24:58;;;;;;;5.77;5.33;;;28.00;1.00;;;;;;5047146;28;20438;-60
2022/06/16 13:30:56;;;;;;;6.83;5.07;;;27.80;1.00;;;;;;5044385;28;21023;-60
2022/06/16 13:33:31;;;;;;;6.60;5.17;;;27.80;1.00;;;;;;5069533;28;20460;-59
2022/06/16 13:36:13;;;;;;;5.90;5.40;;;28.00;1.00;;;;;;5069752;28;20461;-59
2022/06/16 13:38:51;;;;;;;6.73;4.70;;;28.00;1.00;;;;;;5069388;28;20590;-60
2022/06/16 13:45:11;;;;;;;7.97;4.90;;;28.10;1.00;;;;;;5030777;28;20461;-59
2022/06/16 13:51:24;;;;;;;7.70;4.67;;;28.30;1.00;;;;;;5043883;28;20705;-59
2022/06/16 13:53:50;;;;;;;6.83;4.33;;;28.00;1.00;;;;;;5057882;28;20416;-59
2022/06/16 13:56:22;;;;;;;5.50;4.97;;;27.90;1.00;;;;;;5071797;28;20541;-59
2022/06/16 13:58:50;;;;;;;4.60;4.20;;;27.50;1.00;;;;;;5053087;28;20425;-60
2022/06/16 14:01:27;;;;;;;5.70;5.20;;;27.60;1.00;;;;;;5052908;28;20480;-59
2022/06/16 14:03:58;;;;;;;5.97;4.90;;;28.00;1.00;;;;;;5050450;28;20452;-59
2022/06/16 14:06:29;;;;;;;5.20;4.37;;;28.00;1.00;;;;;;5052436;28;20429;-59
2022/06/16 14:08:59;;;;;;;5.90;5.30;;;28.00;1.00;;;;;;5052899;28;20458;-60
2022/06/16 14:11:33;;;;;;;13.73;10.80;;;28.20;1.00;;;;;;5052964;28;20469;-59
2022/06/16 14:14:11;;;;;;;5.50;4.90;;;29.10;1.00;;;;;;5053188;28;20435;-60
2022/06/16 14:20:20;;;;;;;5.50;5.00;;;32.00;1.00;;;;;;5020120;28;20466;-59
2022/06/16 14:23:06;;;;;;;4.70;4.27;;;33.90;1.00;;;;;;5052833;28;20431;-60
2022/06/16 14:25:41;;;;;;;5.10;4.60;;;34.70;1.00;;;;;;5052739;28;20491;-59
2022/06/16 14:28:47;;;;;;;5.13;4.37;;;34.10;1.00;;;;;;5052637;28;20974;-59
2022/06/16 14:31:33;;;;;;;5.77;4.70;;;33.50;1.00;;;;;;4951201;29;20548;-60
2022/06/16 14:34:21;;;;;;;6.97;4.37;;;33.40;1.00;;;;;;4951927;29;20447;-59
2022/06/16 14:40:26;;;;;;;9.00;5.50;;;33.80;1.00;;;;;;4876381;29;20442;-60
2022/06/16 14:42:54;;;;;;;5.13;4.73;;;32.00;1.00;;;;;;4950378;29;20521;-60
2022/06/16 14:45:37;;;;;;;5.10;4.60;;;32.10;1.00;;;;;;4951840;29;20459;-59
2022/06/16 14:54:34;;;;;;;6.50;4.40;;;32.70;1.00;;;;;;4893576;29;20471;-59
2022/06/16 15:00:44;;;;;;;6.03;4.00;;;32.20;1.00;;;;;;4862439;29;20498;-58
2022/06/16 15:03:15;;;;;;;10.90;4.03;;;31.80;1.00;;;;;;4894704;29;20830;-59
2022/06/16 15:05:43;;;;;;;5.30;3.80;;;31.70;1.00;;;;;;4894681;29;20966;-60